Pointe Du Bois, Canada
Current Conditions -  °F | °C
As of 3:00 AM on Saturday 25 Oct 2014 (Local Time) from CYQK Reporting Station
Overcast Overcast  
Wind Chill: 42°   Ceiling: 4100
Heat Index: 48°   Visibility: 15mi
Dew Point: 32°   Wind: 15mph
Humidity: 54%   Direction: 310°NW
Pressure: 29.77"   Gusts: 25mph
Location:  50.3°N, 95.55°W
Report Text: CYQK 250800Z 31013G22KT 270V330 15SM OVC041 09/00 A2977 RMK SC8 SLP089
Loading
Personal Weather Stations






























Interactive Weather Map
Tropical Storm Tracking
New forecast layout! Learn more

10-Day Weather Forecast

Advertisements
Track Severe Weather on mobile